sensor_id;sensor_type;location;lat;lon;timestamp;P1;durP1;ratioP1;P2;durP2;ratioP2
26710;SDS011;18311;52.754;18.118;2022-08-05T00:00:02;7.28;;;6.58;;
26710;SDS011;18311;52.754;18.118;2022-08-05T00:02:36;8.35;;;6.45;;
26710;SDS011;18311;52.754;18.118;2022-08-05T00:05:09;8.35;;;6.58;;
26710;SDS011;18311;52.754;18.118;2022-08-05T00:07:41;10.13;;;6.45;;
26710;SDS011;18311;52.754;18.118;2022-08-05T00:10:14;7.72;;;6.53;;
26710;SDS011;18311;52.754;18.118;2022-08-05T00:12:45;6.80;;;6.12;;
26710;SDS011;18311;52.754;18.118;2022-08-05T00:15:18;7.72;;;6.53;;
26710;SDS011;18311;52.754;18.118;2022-08-05T00:17:50;7.15;;;6.35;;
26710;SDS011;18311;52.754;18.118;2022-08-05T00:20:22;6.62;;;5.95;;
26710;SDS011;18311;52.754;18.118;2022-08-05T00:22:55;7.47;;;6.58;;
26710;SDS011;18311;52.754;18.118;2022-08-05T00:25:27;7.90;;;6.58;;
26710;SDS011;18311;52.754;18.118;2022-08-05T00:28:00;8.00;;;6.42;;
26710;SDS011;18311;52.754;18.118;2022-08-05T00:30:31;7.00;;;6.30;;
26710;SDS011;18311;52.754;18.118;2022-08-05T00:33:03;9.45;;;6.58;;
26710;SDS011;18311;52.754;18.118;2022-08-05T00:35:36;7.95;;;6.33;;
26710;SDS011;18311;52.754;18.118;2022-08-05T00:38:08;7.47;;;6.20;;
26710;SDS011;18311;52.754;18.118;2022-08-05T00:40:45;7.45;;;6.60;;
26710;SDS011;18311;52.754;18.118;2022-08-05T00:43:22;7.58;;;6.10;;
26710;SDS011;18311;52.754;18.118;2022-08-05T00:45:54;7.20;;;6.47;;
26710;SDS011;18311;52.754;18.118;2022-08-05T00:48:26;7.17;;;6.47;;
26710;SDS011;18311;52.754;18.118;2022-08-05T00:50:58;6.70;;;6.10;;
26710;SDS011;18311;52.754;18.118;2022-08-05T00:53:31;7.78;;;6.10;;
26710;SDS011;18311;52.754;18.118;2022-08-05T00:56:04;8.95;;;6.58;;
26710;SDS011;18311;52.754;18.118;2022-08-05T00:58:35;7.37;;;6.22;;
26710;SDS011;18311;52.754;18.118;2022-08-05T01:01:09;6.78;;;6.15;;
26710;SDS011;18311;52.754;18.118;2022-08-05T01:03:46;7.03;;;6.33;;
26710;SDS011;18311;52.754;18.118;2022-08-05T01:06:17;7.37;;;6.10;;
26710;SDS011;18311;52.754;18.118;2022-08-05T01:08:50;8.45;;;5.90;;
26710;SDS011;18311;52.754;18.118;2022-08-05T01:11:22;6.78;;;6.12;;
26710;SDS011;18311;52.754;18.118;2022-08-05T01:14:03;7.45;;;6.62;;
26710;SDS011;18311;52.754;18.118;2022-08-05T01:19:33;7.95;;;6.15;;
26710;SDS011;18311;52.754;18.118;2022-08-05T01:22:18;7.08;;;6.00;;
26710;SDS011;18311;52.754;18.118;2022-08-05T01:31:34;6.60;;;6.00;;
26710;SDS011;18311;52.754;18.118;2022-08-05T01:33:42;6.62;;;6.03;;
26710;SDS011;18311;52.754;18.118;2022-08-05T01:36:12;6.72;;;6.12;;
26710;SDS011;18311;52.754;18.118;2022-08-05T01:38:47;6.20;;;5.67;;
26710;SDS011;18311;52.754;18.118;2022-08-05T01:41:20;6.87;;;6.28;;
26710;SDS011;18311;52.754;18.118;2022-08-05T01:43:53;6.53;;;5.80;;
26710;SDS011;18311;52.754;18.118;2022-08-05T01:46:25;6.83;;;6.12;;
26710;SDS011;18311;52.754;18.118;2022-08-05T01:49:01;7.22;;;5.80;;
26710;SDS011;18311;52.754;18.118;2022-08-05T01:51:35;6.20;;;5.70;;
26710;SDS011;18311;52.754;18.118;2022-08-05T01:54:09;7.05;;;5.78;;
26710;SDS011;18311;52.754;18.118;2022-08-05T01:56:45;6.45;;;5.85;;
26710;SDS011;18311;52.754;18.118;2022-08-05T01:59:20;6.62;;;5.47;;
26710;SDS011;18311;52.754;18.118;2022-08-05T02:01:53;6.72;;;5.90;;
26710;SDS011;18311;52.754;18.118;2022-08-05T02:07:00;6.92;;;6.00;;
26710;SDS011;18311;52.754;18.118;2022-08-05T02:09:33;8.88;;;5.78;;
26710;SDS011;18311;52.754;18.118;2022-08-05T02:12:06;6.30;;;5.78;;
26710;SDS011;18311;52.754;18.118;2022-08-05T02:14:45;6.62;;;5.85;;
26710;SDS011;18311;52.754;18.118;2022-08-05T02:20:21;6.20;;;5.60;;
26710;SDS011;18311;52.754;18.118;2022-08-05T02:22:57;7.20;;;5.62;;
26710;SDS011;18311;52.754;18.118;2022-08-05T02:25:33;5.85;;;5.35;;
26710;SDS011;18311;52.754;18.118;2022-08-05T02:28:06;7.08;;;6.00;;
26710;SDS011;18311;52.754;18.118;2022-08-05T02:30:42;7.22;;;6.25;;
26710;SDS011;18311;52.754;18.118;2022-08-05T02:33:16;8.30;;;5.50;;
26710;SDS011;18311;52.754;18.118;2022-08-05T02:35:53;6.65;;;6.05;;
26710;SDS011;18311;52.754;18.118;2022-08-05T02:38:28;6.10;;;5.47;;
26710;SDS011;18311;52.754;18.118;2022-08-05T02:41:02;7.70;;;5.90;;
26710;SDS011;18311;52.754;18.118;2022-08-05T02:43:38;10.55;;;6.10;;
26710;SDS011;18311;52.754;18.118;2022-08-05T02:46:18;6.12;;;5.53;;
26710;SDS011;18311;52.754;18.118;2022-08-05T02:48:48;7.80;;;5.97;;
26710;SDS011;18311;52.754;18.118;2022-08-05T02:51:21;6.62;;;5.87;;
26710;SDS011;18311;52.754;18.118;2022-08-05T02:53:54;6.62;;;6.03;;
26710;SDS011;18311;52.754;18.118;2022-08-05T02:56:28;6.78;;;6.17;;
26710;SDS011;18311;52.754;18.118;2022-08-05T02:58:59;6.37;;;5.78;;
26710;SDS011;18311;52.754;18.118;2022-08-05T03:01:34;7.62;;;5.97;;
26710;SDS011;18311;52.754;18.118;2022-08-05T03:04:13;6.45;;;5.78;;
26710;SDS011;18311;52.754;18.118;2022-08-05T03:06:44;6.42;;;5.83;;
26710;SDS011;18311;52.754;18.118;2022-08-05T03:09:17;6.72;;;6.00;;
26710;SDS011;18311;52.754;18.118;2022-08-05T03:11:50;6.37;;;5.78;;
26710;SDS011;18311;52.754;18.118;2022-08-05T03:14:23;7.30;;;6.17;;
26710;SDS011;18311;52.754;18.118;2022-08-05T03:16:55;6.12;;;5.62;;
26710;SDS011;18311;52.754;18.118;2022-08-05T03:19:26;6.00;;;5.40;;
26710;SDS011;18311;52.754;18.118;2022-08-05T03:21:59;6.50;;;5.62;;
26710;SDS011;18311;52.754;18.118;2022-08-05T03:24:32;6.33;;;5.72;;
26710;SDS011;18311;52.754;18.118;2022-08-05T03:27:03;8.15;;;6.03;;
26710;SDS011;18311;52.754;18.118;2022-08-05T03:29:35;6.53;;;5.95;;
26710;SDS011;18311;52.754;18.118;2022-08-05T03:32:10;6.92;;;6.10;;
26710;SDS011;18311;52.754;18.118;2022-08-05T03:34:43;6.50;;;5.83;;
26710;SDS011;18311;52.754;18.118;2022-08-05T03:37:17;5.92;;;5.42;;
26710;SDS011;18311;52.754;18.118;2022-08-05T03:39:50;7.53;;;5.80;;
26710;SDS011;18311;52.754;18.118;2022-08-05T03:42:25;6.45;;;5.83;;
26710;SDS011;18311;52.754;18.118;2022-08-05T03:44:58;6.53;;;5.92;;
26710;SDS011;18311;52.754;18.118;2022-08-05T03:47:31;6.40;;;5.80;;
26710;SDS011;18311;52.754;18.118;2022-08-05T03:50:04;6.12;;;5.53;;
26710;SDS011;18311;52.754;18.118;2022-08-05T03:52:41;7.08;;;5.67;;
26710;SDS011;18311;52.754;18.118;2022-08-05T03:55:25;7.80;;;5.85;;
26710;SDS011;18311;52.754;18.118;2022-08-05T03:58:00;6.28;;;5.60;;
26710;SDS011;18311;52.754;18.118;2022-08-05T04:00:33;7.08;;;6.33;;
26710;SDS011;18311;52.754;18.118;2022-08-05T04:03:07;6.22;;;5.62;;
26710;SDS011;18311;52.754;18.118;2022-08-05T04:05:42;6.22;;;5.62;;
26710;SDS011;18311;52.754;18.118;2022-08-05T04:08:15;6.25;;;5.65;;
26710;SDS011;18311;52.754;18.118;2022-08-05T04:10:48;5.80;;;5.20;;
26710;SDS011;18311;52.754;18.118;2022-08-05T04:13:20;5.83;;;5.33;;
26710;SDS011;18311;52.754;18.118;2022-08-05T04:15:52;6.75;;;5.28;;
26710;SDS011;18311;52.754;18.118;2022-08-05T04:18:24;6.10;;;5.50;;
26710;SDS011;18311;52.754;18.118;2022-08-05T04:20:57;5.33;;;4.83;;
26710;SDS011;18311;52.754;18.118;2022-08-05T04:23:28;6.00;;;5.40;;
26710;SDS011;18311;52.754;18.118;2022-08-05T04:26:01;6.00;;;5.47;;
26710;SDS011;18311;52.754;18.118;2022-08-05T04:28:32;5.97;;;5.28;;
26710;SDS011;18311;52.754;18.118;2022-08-05T04:31:05;7.12;;;5.50;;
26710;SDS011;18311;52.754;18.118;2022-08-05T04:33:38;6.37;;;5.25;;
26710;SDS011;18311;52.754;18.118;2022-08-05T04:36:10;6.05;;;5.45;;
26710;SDS011;18311;52.754;18.118;2022-08-05T04:38:44;5.80;;;5.20;;
26710;SDS011;18311;52.754;18.118;2022-08-05T04:41:17;7.10;;;5.72;;
26710;SDS011;18311;52.754;18.118;2022-08-05T04:43:50;6.08;;;5.47;;
26710;SDS011;18311;52.754;18.118;2022-08-05T04:46:22;6.00;;;5.40;;
26710;SDS011;18311;52.754;18.118;2022-08-05T04:48:54;5.97;;;5.08;;
26710;SDS011;18311;52.754;18.118;2022-08-05T04:51:26;5.70;;;5.20;;
26710;SDS011;18311;52.754;18.118;2022-08-05T04:53:58;7.40;;;5.85;;
26710;SDS011;18311;52.754;18.118;2022-08-05T04:56:29;7.45;;;5.58;;
26710;SDS011;18311;52.754;18.118;2022-08-05T04:59:02;5.90;;;5.30;;
26710;SDS011;18311;52.754;18.118;2022-08-05T05:01:35;6.10;;;5.50;;
26710;SDS011;18311;52.754;18.118;2022-08-05T05:04:08;6.03;;;5.42;;
26710;SDS011;18311;52.754;18.118;2022-08-05T05:06:39;7.92;;;5.40;;
26710;SDS011;18311;52.754;18.118;2022-08-05T05:09:11;7.47;;;5.85;;
26710;SDS011;18311;52.754;18.118;2022-08-05T05:11:44;6.22;;;5.37;;
26710;SDS011;18311;52.754;18.118;2022-08-05T05:14:17;5.87;;;5.28;;
26710;SDS011;18311;52.754;18.118;2022-08-05T05:16:51;5.67;;;5.00;;
26710;SDS011;18311;52.754;18.118;2022-08-05T05:19:22;10.00;;;5.40;;
26710;SDS011;18311;52.754;18.118;2022-08-05T05:21:56;7.03;;;5.08;;
26710;SDS011;18311;52.754;18.118;2022-08-05T05:24:28;6.12;;;5.00;;
26710;SDS011;18311;52.754;18.118;2022-08-05T05:27:00;7.40;;;5.37;;
26710;SDS011;18311;52.754;18.118;2022-08-05T05:29:31;5.80;;;4.78;;
26710;SDS011;18311;52.754;18.118;2022-08-05T05:32:04;5.20;;;4.42;;
26710;SDS011;18311;52.754;18.118;2022-08-05T05:34:38;6.28;;;4.67;;
26710;SDS011;18311;52.754;18.118;2022-08-05T05:37:10;4.60;;;4.20;;
26710;SDS011;18311;52.754;18.118;2022-08-05T05:39:43;6.22;;;4.62;;
26710;SDS011;18311;52.754;18.118;2022-08-05T05:42:14;8.35;;;4.83;;
26710;SDS011;18311;52.754;18.118;2022-08-05T05:44:47;5.00;;;4.50;;
26710;SDS011;18311;52.754;18.118;2022-08-05T05:47:21;5.97;;;4.33;;
26710;SDS011;18311;52.754;18.118;2022-08-05T05:49:54;4.87;;;4.40;;
26710;SDS011;18311;52.754;18.118;2022-08-05T05:52:28;5.75;;;4.55;;
26710;SDS011;18311;52.754;18.118;2022-08-05T05:55:02;6.75;;;4.60;;
26710;SDS011;18311;52.754;18.118;2022-08-05T05:57:37;5.50;;;4.17;;
26710;SDS011;18311;52.754;18.118;2022-08-05T06:00:11;5.45;;;4.30;;
26710;SDS011;18311;52.754;18.118;2022-08-05T06:02:47;6.55;;;4.17;;
26710;SDS011;18311;52.754;18.118;2022-08-05T06:05:18;4.30;;;3.90;;
26710;SDS011;18311;52.754;18.118;2022-08-05T06:07:49;5.33;;;3.95;;
26710;SDS011;18311;52.754;18.118;2022-08-05T06:10:24;6.45;;;3.90;;
26710;SDS011;18311;52.754;18.118;2022-08-05T06:12:56;6.03;;;3.75;;
26710;SDS011;18311;52.754;18.118;2022-08-05T06:15:27;4.22;;;3.83;;
26710;SDS011;18311;52.754;18.118;2022-08-05T06:18:00;4.08;;;3.58;;
26710;SDS011;18311;52.754;18.118;2022-08-05T06:20:31;4.80;;;3.37;;
26710;SDS011;18311;52.754;18.118;2022-08-05T06:23:08;5.33;;;3.27;;
26710;SDS011;18311;52.754;18.118;2022-08-05T06:25:42;3.90;;;3.50;;
26710;SDS011;18311;52.754;18.118;2022-08-05T06:28:15;3.67;;;3.27;;
26710;SDS011;18311;52.754;18.118;2022-08-05T06:30:47;4.72;;;3.10;;
26710;SDS011;18311;52.754;18.118;2022-08-05T06:33:19;6.55;;;3.20;;
26710;SDS011;18311;52.754;18.118;2022-08-05T06:35:52;4.60;;;3.08;;
26710;SDS011;18311;52.754;18.118;2022-08-05T06:38:25;4.53;;;3.00;;
26710;SDS011;18311;52.754;18.118;2022-08-05T06:40:58;3.22;;;2.87;;
26710;SDS011;18311;52.754;18.118;2022-08-05T06:43:30;3.10;;;2.80;;
26710;SDS011;18311;52.754;18.118;2022-08-05T06:46:03;3.83;;;2.85;;
26710;SDS011;18311;52.754;18.118;2022-08-05T06:48:35;3.22;;;2.90;;
26710;SDS011;18311;52.754;18.118;2022-08-05T06:51:08;3.72;;;2.80;;
26710;SDS011;18311;52.754;18.118;2022-08-05T06:53:41;3.08;;;2.70;;
26710;SDS011;18311;52.754;18.118;2022-08-05T06:56:13;4.40;;;2.80;;
26710;SDS011;18311;52.754;18.118;2022-08-05T06:58:46;3.42;;;2.80;;
26710;SDS011;18311;52.754;18.118;2022-08-05T07:01:17;3.83;;;2.65;;
26710;SDS011;18311;52.754;18.118;2022-08-05T07:03:50;6.75;;;2.92;;
26710;SDS011;18311;52.754;18.118;2022-08-05T07:06:22;3.50;;;2.50;;
26710;SDS011;18311;52.754;18.118;2022-08-05T07:08:55;5.65;;;2.40;;
26710;SDS011;18311;52.754;18.118;2022-08-05T07:11:28;3.30;;;2.80;;
26710;SDS011;18311;52.754;18.118;2022-08-05T07:14:01;4.45;;;2.67;;
26710;SDS011;18311;52.754;18.118;2022-08-05T07:16:52;2.60;;;2.40;;
26710;SDS011;18311;52.754;18.118;2022-08-05T07:19:27;3.17;;;2.62;;
26710;SDS011;18311;52.754;18.118;2022-08-05T07:22:00;4.12;;;2.52;;
26710;SDS011;18311;52.754;18.118;2022-08-05T07:24:34;2.85;;;2.45;;
26710;SDS011;18311;52.754;18.118;2022-08-05T07:27:07;3.30;;;2.47;;
26710;SDS011;18311;52.754;18.118;2022-08-05T07:29:38;4.00;;;2.70;;
26710;SDS011;18311;52.754;18.118;2022-08-05T07:32:11;3.27;;;2.40;;
26710;SDS011;18311;52.754;18.118;2022-08-05T07:34:42;3.87;;;2.60;;
26710;SDS011;18311;52.754;18.118;2022-08-05T07:37:14;5.83;;;2.60;;
26710;SDS011;18311;52.754;18.118;2022-08-05T07:39:46;6.53;;;2.58;;
26710;SDS011;18311;52.754;18.118;2022-08-05T07:42:23;5.20;;;2.70;;
26710;SDS011;18311;52.754;18.118;2022-08-05T07:44:57;6.97;;;2.87;;
26710;SDS011;18311;52.754;18.118;2022-08-05T07:47:28;4.92;;;2.47;;
26710;SDS011;18311;52.754;18.118;2022-08-05T07:50:01;3.30;;;2.60;;
26710;SDS011;18311;52.754;18.118;2022-08-05T07:52:37;4.65;;;2.80;;
26710;SDS011;18311;52.754;18.118;2022-08-05T07:55:11;4.67;;;2.67;;
26710;SDS011;18311;52.754;18.118;2022-08-05T07:57:43;2.70;;;2.50;;
26710;SDS011;18311;52.754;18.118;2022-08-05T08:00:17;4.50;;;2.77;;
26710;SDS011;18311;52.754;18.118;2022-08-05T08:02:51;4.37;;;2.15;;
26710;SDS011;18311;52.754;18.118;2022-08-05T08:05:24;4.37;;;2.50;;
26710;SDS011;18311;52.754;18.118;2022-08-05T08:07:55;3.10;;;2.20;;
26710;SDS011;18311;52.754;18.118;2022-08-05T08:10:28;4.85;;;2.27;;
26710;SDS011;18311;52.754;18.118;2022-08-05T08:13:00;2.75;;;2.42;;
26710;SDS011;18311;52.754;18.118;2022-08-05T08:15:31;4.75;;;2.72;;
26710;SDS011;18311;52.754;18.118;2022-08-05T08:18:04;3.08;;;2.75;;
26710;SDS011;18311;52.754;18.118;2022-08-05T08:20:37;6.22;;;2.80;;
26710;SDS011;18311;52.754;18.118;2022-08-05T08:23:10;2.90;;;2.52;;
26710;SDS011;18311;52.754;18.118;2022-08-05T08:25:45;6.03;;;2.50;;
26710;SDS011;18311;52.754;18.118;2022-08-05T08:28:18;2.92;;;2.62;;
26710;SDS011;18311;52.754;18.118;2022-08-05T08:30:51;3.30;;;2.30;;
26710;SDS011;18311;52.754;18.118;2022-08-05T08:33:22;5.85;;;2.40;;
26710;SDS011;18311;52.754;18.118;2022-08-05T08:35:55;4.05;;;2.40;;
26710;SDS011;18311;52.754;18.118;2022-08-05T08:38:28;2.98;;;2.60;;
26710;SDS011;18311;52.754;18.118;2022-08-05T08:41:03;2.83;;;2.50;;
26710;SDS011;18311;52.754;18.118;2022-08-05T08:43:36;6.00;;;2.55;;
26710;SDS011;18311;52.754;18.118;2022-08-05T08:46:10;4.80;;;2.45;;
26710;SDS011;18311;52.754;18.118;2022-08-05T08:48:43;4.17;;;2.47;;
26710;SDS011;18311;52.754;18.118;2022-08-05T08:51:18;4.78;;;2.85;;
26710;SDS011;18311;52.754;18.118;2022-08-05T08:53:52;9.25;;;3.02;;
26710;SDS011;18311;52.754;18.118;2022-08-05T08:56:24;6.83;;;2.70;;
26710;SDS011;18311;52.754;18.118;2022-08-05T08:58:55;4.53;;;2.42;;
26710;SDS011;18311;52.754;18.118;2022-08-05T09:01:28;3.62;;;2.58;;
26710;SDS011;18311;52.754;18.118;2022-08-05T09:04:00;3.47;;;2.50;;
26710;SDS011;18311;52.754;18.118;2022-08-05T09:06:33;2.72;;;2.52;;
26710;SDS011;18311;52.754;18.118;2022-08-05T09:09:08;6.55;;;2.67;;
26710;SDS011;18311;52.754;18.118;2022-08-05T09:11:40;2.83;;;2.30;;
26710;SDS011;18311;52.754;18.118;2022-08-05T09:14:13;5.28;;;2.70;;
26710;SDS011;18311;52.754;18.118;2022-08-05T09:16:46;4.33;;;2.70;;
26710;SDS011;18311;52.754;18.118;2022-08-05T09:19:18;2.85;;;2.42;;
26710;SDS011;18311;52.754;18.118;2022-08-05T09:21:51;5.40;;;2.60;;
26710;SDS011;18311;52.754;18.118;2022-08-05T09:24:24;3.00;;;2.35;;
26710;SDS011;18311;52.754;18.118;2022-08-05T09:26:59;3.62;;;2.80;;
26710;SDS011;18311;52.754;18.118;2022-08-05T09:29:36;5.42;;;2.70;;
26710;SDS011;18311;52.754;18.118;2022-08-05T09:32:14;6.22;;;2.90;;
26710;SDS011;18311;52.754;18.118;2022-08-05T09:34:52;5.78;;;2.67;;
26710;SDS011;18311;52.754;18.118;2022-08-05T09:37:27;5.95;;;3.05;;
26710;SDS011;18311;52.754;18.118;2022-08-05T09:40:00;8.23;;;3.50;;
26710;SDS011;18311;52.754;18.118;2022-08-05T09:42:38;6.65;;;3.47;;
26710;SDS011;18311;52.754;18.118;2022-08-05T09:45:11;3.22;;;2.50;;
26710;SDS011;18311;52.754;18.118;2022-08-05T09:47:46;4.50;;;2.70;;
26710;SDS011;18311;52.754;18.118;2022-08-05T09:50:19;4.17;;;2.85;;
26710;SDS011;18311;52.754;18.118;2022-08-05T09:52:56;3.35;;;2.80;;
26710;SDS011;18311;52.754;18.118;2022-08-05T09:55:26;3.40;;;2.22;;
26710;SDS011;18311;52.754;18.118;2022-08-05T09:58:12;4.95;;;3.00;;
26710;SDS011;18311;52.754;18.118;2022-08-05T10:00:52;3.22;;;2.83;;
26710;SDS011;18311;52.754;18.118;2022-08-05T10:03:26;3.05;;;2.40;;
26710;SDS011;18311;52.754;18.118;2022-08-05T10:06:04;5.28;;;3.08;;
26710;SDS011;18311;52.754;18.118;2022-08-05T10:08:38;4.40;;;2.50;;
26710;SDS011;18311;52.754;18.118;2022-08-05T10:11:13;3.65;;;2.40;;
26710;SDS011;18311;52.754;18.118;2022-08-05T10:13:47;3.30;;;2.70;;
26710;SDS011;18311;52.754;18.118;2022-08-05T10:16:35;3.50;;;2.95;;
26710;SDS011;18311;52.754;18.118;2022-08-05T10:19:14;5.92;;;3.05;;
26710;SDS011;18311;52.754;18.118;2022-08-05T10:21:49;2.77;;;2.47;;
26710;SDS011;18311;52.754;18.118;2022-08-05T10:24:22;2.92;;;2.40;;
26710;SDS011;18311;52.754;18.118;2022-08-05T10:26:54;5.67;;;2.58;;
26710;SDS011;18311;52.754;18.118;2022-08-05T10:29:28;4.85;;;2.67;;
26710;SDS011;18311;52.754;18.118;2022-08-05T10:32:03;4.75;;;2.75;;
26710;SDS011;18311;52.754;18.118;2022-08-05T10:34:37;4.85;;;2.87;;
26710;SDS011;18311;52.754;18.118;2022-08-05T10:37:10;3.35;;;2.50;;
26710;SDS011;18311;52.754;18.118;2022-08-05T10:39:42;4.62;;;2.83;;
26710;SDS011;18311;52.754;18.118;2022-08-05T10:42:20;3.65;;;2.45;;
26710;SDS011;18311;52.754;18.118;2022-08-05T10:44:53;2.80;;;2.60;;
26710;SDS011;18311;52.754;18.118;2022-08-05T10:47:31;3.13;;;2.70;;
26710;SDS011;18311;52.754;18.118;2022-08-05T10:50:07;3.85;;;2.80;;
26710;SDS011;18311;52.754;18.118;2022-08-05T10:55:31;4.83;;;2.60;;
26710;SDS011;18311;52.754;18.118;2022-08-05T10:58:07;4.50;;;3.00;;
26710;SDS011;18311;52.754;18.118;2022-08-05T11:00:45;6.95;;;2.70;;
26710;SDS011;18311;52.754;18.118;2022-08-05T11:03:20;4.80;;;2.80;;
26710;SDS011;18311;52.754;18.118;2022-08-05T11:06:07;4.00;;;2.70;;
26710;SDS011;18311;52.754;18.118;2022-08-05T11:11:44;6.22;;;2.80;;
26710;SDS011;18311;52.754;18.118;2022-08-05T11:14:27;6.58;;;2.80;;
26710;SDS011;18311;52.754;18.118;2022-08-05T11:20:06;2.72;;;2.52;;
26710;SDS011;18311;52.754;18.118;2022-08-05T11:22:45;3.05;;;2.58;;
26710;SDS011;18311;52.754;18.118;2022-08-05T11:25:30;5.47;;;2.90;;
26710;SDS011;18311;52.754;18.118;2022-08-05T11:33:33;4.47;;;2.83;;
26710;SDS011;18311;52.754;18.118;2022-08-05T11:36:08;3.12;;;2.72;;
26710;SDS011;18311;52.754;18.118;2022-08-05T11:41:23;5.72;;;2.85;;
26710;SDS011;18311;52.754;18.118;2022-08-05T11:44:02;2.90;;;2.60;;
26710;SDS011;18311;52.754;18.118;2022-08-05T11:46:50;4.90;;;2.87;;
26710;SDS011;18311;52.754;18.118;2022-08-05T11:49:24;4.17;;;2.72;;
26710;SDS011;18311;52.754;18.118;2022-08-05T11:51:55;2.70;;;2.50;;
26710;SDS011;18311;52.754;18.118;2022-08-05T11:54:28;3.35;;;3.10;;
26710;SDS011;18311;52.754;18.118;2022-08-05T11:57:03;3.90;;;2.72;;
26710;SDS011;18311;52.754;18.118;2022-08-05T11:59:36;4.00;;;2.52;;
26710;SDS011;18311;52.754;18.118;2022-08-05T12:02:09;5.17;;;2.67;;
26710;SDS011;18311;52.754;18.118;2022-08-05T12:04:42;4.03;;;2.80;;
26710;SDS011;18311;52.754;18.118;2022-08-05T12:07:18;5.00;;;3.20;;
26710;SDS011;18311;52.754;18.118;2022-08-05T12:09:54;3.30;;;2.98;;
26710;SDS011;18311;52.754;18.118;2022-08-05T12:12:29;4.30;;;2.67;;
26710;SDS011;18311;52.754;18.118;2022-08-05T12:15:01;3.75;;;3.10;;
26710;SDS011;18311;52.754;18.118;2022-08-05T12:17:34;4.15;;;3.15;;
26710;SDS011;18311;52.754;18.118;2022-08-05T12:20:08;4.00;;;3.02;;
26710;SDS011;18311;52.754;18.118;2022-08-05T12:22:41;3.65;;;2.80;;
26710;SDS011;18311;52.754;18.118;2022-08-05T12:25:13;3.17;;;2.85;;
26710;SDS011;18311;52.754;18.118;2022-08-05T12:27:45;4.60;;;3.15;;
26710;SDS011;18311;52.754;18.118;2022-08-05T12:30:18;4.22;;;3.00;;
26710;SDS011;18311;52.754;18.118;2022-08-05T12:32:52;4.20;;;3.10;;
26710;SDS011;18311;52.754;18.118;2022-08-05T12:35:28;4.27;;;2.70;;
26710;SDS011;18311;52.754;18.118;2022-08-05T12:38:00;3.67;;;2.92;;
26710;SDS011;18311;52.754;18.118;2022-08-05T12:40:34;4.55;;;3.08;;
26710;SDS011;18311;52.754;18.118;2022-08-05T12:43:07;5.67;;;2.80;;
26710;SDS011;18311;52.754;18.118;2022-08-05T12:45:58;3.42;;;2.98;;
26710;SDS011;18311;52.754;18.118;2022-08-05T12:48:36;3.70;;;3.33;;
26710;SDS011;18311;52.754;18.118;2022-08-05T12:51:13;5.40;;;2.70;;
26710;SDS011;18311;52.754;18.118;2022-08-05T12:53:49;4.62;;;3.10;;
26710;SDS011;18311;52.754;18.118;2022-08-05T12:56:23;3.40;;;3.10;;
26710;SDS011;18311;52.754;18.118;2022-08-05T13:01:54;4.33;;;3.05;;
26710;SDS011;18311;52.754;18.118;2022-08-05T13:04:36;6.05;;;3.52;;
26710;SDS011;18311;52.754;18.118;2022-08-05T13:07:16;5.12;;;3.10;;
26710;SDS011;18311;52.754;18.118;2022-08-05T13:09:51;3.77;;;3.00;;
26710;SDS011;18311;52.754;18.118;2022-08-05T13:12:25;3.42;;;2.90;;
26710;SDS011;18311;52.754;18.118;2022-08-05T13:14:57;5.03;;;3.27;;
26710;SDS011;18311;52.754;18.118;2022-08-05T13:17:31;5.37;;;2.80;;
26710;SDS011;18311;52.754;18.118;2022-08-05T13:20:11;6.67;;;3.05;;
26710;SDS011;18311;52.754;18.118;2022-08-05T13:22:45;4.92;;;2.80;;
26710;SDS011;18311;52.754;18.118;2022-08-05T13:25:18;4.45;;;3.70;;
26710;SDS011;18311;52.754;18.118;2022-08-05T13:27:52;6.53;;;3.35;;
26710;SDS011;18311;52.754;18.118;2022-08-05T13:30:25;4.47;;;3.00;;
26710;SDS011;18311;52.754;18.118;2022-08-05T13:32:58;7.60;;;3.37;;
26710;SDS011;18311;52.754;18.118;2022-08-05T13:35:29;9.73;;;3.98;;
26710;SDS011;18311;52.754;18.118;2022-08-05T13:38:02;10.53;;;3.70;;
26710;SDS011;18311;52.754;18.118;2022-08-05T13:40:34;15.60;;;3.70;;
26710;SDS011;18311;52.754;18.118;2022-08-05T13:43:08;7.95;;;3.62;;
26710;SDS011;18311;52.754;18.118;2022-08-05T13:45:43;3.65;;;3.08;;
26710;SDS011;18311;52.754;18.118;2022-08-05T13:48:17;5.85;;;3.47;;
26710;SDS011;18311;52.754;18.118;2022-08-05T13:50:50;6.30;;;3.58;;
26710;SDS011;18311;52.754;18.118;2022-08-05T13:53:22;7.60;;;3.05;;
26710;SDS011;18311;52.754;18.118;2022-08-05T13:55:56;5.15;;;3.08;;
26710;SDS011;18311;52.754;18.118;2022-08-05T13:58:29;3.25;;;2.95;;
26710;SDS011;18311;52.754;18.118;2022-08-05T14:01:00;3.50;;;3.20;;
26710;SDS011;18311;52.754;18.118;2022-08-05T14:03:34;3.35;;;3.02;;
26710;SDS011;18311;52.754;18.118;2022-08-05T14:06:06;5.75;;;2.80;;
26710;SDS011;18311;52.754;18.118;2022-08-05T14:08:39;3.70;;;3.12;;
26710;SDS011;18311;52.754;18.118;2022-08-05T14:11:11;3.30;;;2.98;;
26710;SDS011;18311;52.754;18.118;2022-08-05T14:13:44;4.28;;;3.30;;
26710;SDS011;18311;52.754;18.118;2022-08-05T14:16:17;5.20;;;3.10;;
26710;SDS011;18311;52.754;18.118;2022-08-05T14:18:48;3.50;;;3.20;;
26710;SDS011;18311;52.754;18.118;2022-08-05T14:21:19;3.47;;;2.92;;
26710;SDS011;18311;52.754;18.118;2022-08-05T14:23:52;6.53;;;3.58;;
26710;SDS011;18311;52.754;18.118;2022-08-05T14:26:24;9.28;;;3.85;;
26710;SDS011;18311;52.754;18.118;2022-08-05T14:28:57;7.97;;;3.67;;
26710;SDS011;18311;52.754;18.118;2022-08-05T14:31:30;7.62;;;4.10;;
26710;SDS011;18311;52.754;18.118;2022-08-05T14:34:03;6.90;;;3.35;;
26710;SDS011;18311;52.754;18.118;2022-08-05T14:36:36;5.08;;;3.50;;
26710;SDS011;18311;52.754;18.118;2022-08-05T14:39:07;5.22;;;3.20;;
26710;SDS011;18311;52.754;18.118;2022-08-05T14:41:40;5.08;;;3.60;;
26710;SDS011;18311;52.754;18.118;2022-08-05T14:44:13;5.17;;;3.15;;
26710;SDS011;18311;52.754;18.118;2022-08-05T14:46:47;3.90;;;3.50;;
26710;SDS011;18311;52.754;18.118;2022-08-05T14:49:20;4.20;;;3.42;;
26710;SDS011;18311;52.754;18.118;2022-08-05T14:51:52;4.30;;;3.35;;
26710;SDS011;18311;52.754;18.118;2022-08-05T14:54:23;6.08;;;3.22;;
26710;SDS011;18311;52.754;18.118;2022-08-05T14:56:57;4.12;;;3.47;;
26710;SDS011;18311;52.754;18.118;2022-08-05T14:59:30;4.90;;;3.47;;
26710;SDS011;18311;52.754;18.118;2022-08-05T15:02:03;4.28;;;3.70;;
26710;SDS011;18311;52.754;18.118;2022-08-05T15:04:36;3.95;;;3.50;;
26710;SDS011;18311;52.754;18.118;2022-08-05T15:07:09;3.65;;;3.35;;
26710;SDS011;18311;52.754;18.118;2022-08-05T15:09:44;4.15;;;3.35;;
26710;SDS011;18311;52.754;18.118;2022-08-05T15:12:17;4.25;;;2.98;;
26710;SDS011;18311;52.754;18.118;2022-08-05T15:14:48;5.35;;;3.10;;
26710;SDS011;18311;52.754;18.118;2022-08-05T15:17:21;4.55;;;3.10;;
26710;SDS011;18311;52.754;18.118;2022-08-05T15:19:54;6.60;;;3.20;;
26710;SDS011;18311;52.754;18.118;2022-08-05T15:22:25;4.67;;;3.25;;
26710;SDS011;18311;52.754;18.118;2022-08-05T15:24:56;4.45;;;3.65;;
26710;SDS011;18311;52.754;18.118;2022-08-05T15:27:30;8.28;;;3.85;;
26710;SDS011;18311;52.754;18.118;2022-08-05T15:30:04;4.47;;;3.50;;
26710;SDS011;18311;52.754;18.118;2022-08-05T15:32:37;4.47;;;3.40;;
26710;SDS011;18311;52.754;18.118;2022-08-05T15:35:08;3.50;;;3.20;;
26710;SDS011;18311;52.754;18.118;2022-08-05T15:37:41;5.60;;;3.42;;
26710;SDS011;18311;52.754;18.118;2022-08-05T15:40:14;4.17;;;3.75;;
26710;SDS011;18311;52.754;18.118;2022-08-05T15:42:48;5.60;;;3.50;;
26710;SDS011;18311;52.754;18.118;2022-08-05T15:45:21;3.52;;;3.20;;